Airport View

Enter AWOS ICAO identifier for current METAR.

ex. KFNL

K1R7 041555Z AUTO 00000KT 10SM OVC007 25/25 A2998 RMK AO2 PWINO

4 Jul 2020 15:56

Frequency: 118.125

Phone: 601-833-3209

Other Area AWOS: KMCB - K0R0 - KJVW - KHKS

TAF KMCB 041120Z 0412/0512 00000KT 1/4SM FG VCSH FEW001 SCT030 FM041400 VRB04KT P6SM VCSH SCT015 BKN020 FM050800 00000KT 2SM -SHRA BR SCT025 BKN090 FM050900 00000KT 1SM BR SCT008 BKN025 FM051000 00000KT 1/2SM -SHRA SCT003 BKN025 FM051100 00000KT 3SM -SHRA BR SCT010 BKN025